Time;durP1;ratioP1;P1;durP2;ratioP2;P2;SDS_P1;SDS_P2;PMS_P1;PMS_P2;Temp;Humidity;BMP_temperature;BMP_pressure;BME280_temperature;BME280_humidity;BME280_pressure;Samples;Min_cycle;Max_cycle;Signal;HPM_P1;HPM_P2
2023/08/10 00:00:20;;;;;;;2.70;2.00;;;;;;;25.03;36.61;100731.80;104429;1285;73597;-84
2023/08/10 00:02:49;;;;;;;2.10;1.80;;;;;;;25.03;36.55;100733.03;104316;1285;69014;-84
2023/08/10 00:05:14;;;;;;;3.60;2.40;;;;;;;25.03;36.26;100735.77;104223;1285;69326;-85
2023/08/10 00:07:40;;;;;;;3.50;2.30;;;;;;;25.03;36.72;100736.59;104215;1285;69328;-84
2023/08/10 00:10:08;;;;;;;3.40;2.20;;;;;;;25.02;36.59;100733.86;104245;1285;69934;-85
2023/08/10 00:12:35;;;;;;;3.20;2.10;;;;;;;25.03;36.73;100732.63;104283;1285;69261;-85
2023/08/10 00:15:01;;;;;;;5.80;2.40;;;;;;;25.02;36.88;100732.12;104252;1289;69190;-85
2023/08/10 00:17:26;;;;;;;3.60;2.20;;;;;;;25.02;36.84;100735.83;104280;1285;70674;-85
2023/08/10 00:19:52;;;;;;;3.10;2.30;;;;;;;25.02;36.86;100736.09;104251;1289;70270;-85
2023/08/10 00:22:17;;;;;;;2.70;2.20;;;;;;;25.01;36.90;100740.27;104291;1285;69475;-85
2023/08/10 00:24:51;;;;;;;2.70;1.80;;;;;;;25.01;36.93;100744.23;104147;1288;69187;-90
2023/08/10 00:27:17;;;;;;;3.50;2.30;;;;;;;25.01;36.92;100747.73;104192;1285;69033;-85
2023/08/10 00:29:43;;;;;;;5.80;2.20;;;;;;;25.01;36.87;100752.42;104109;1290;69310;-85
2023/08/10 00:32:09;;;;;;;2.60;2.10;;;;;;;25.00;37.13;100747.07;104101;1285;70952;-85
2023/08/10 00:34:34;;;;;;;4.00;2.20;;;;;;;25.02;37.17;100745.20;104255;1285;69177;-85
2023/08/10 00:37:00;;;;;;;4.00;2.50;;;;;;;25.01;36.96;100745.52;104262;1289;69164;-85
2023/08/10 00:39:26;;;;;;;3.10;2.10;;;;;;;25.01;37.38;100745.83;104173;1285;69282;-85
2023/08/10 00:41:53;;;;;;;6.20;2.30;;;;;;;25.00;37.45;100742.95;104284;1285;69167;-85
2023/08/10 00:44:19;;;;;;;6.10;2.50;;;;;;;25.00;37.23;100740.23;104292;1285;73546;-85
2023/08/10 00:46:44;;;;;;;3.80;2.20;;;;;;;25.00;37.62;100734.16;104263;1285;69212;-85
2023/08/10 00:49:10;;;;;;;3.30;2.50;;;;;;;25.00;37.56;100732.56;104129;1286;69360;-85
2023/08/10 00:51:43;;;;;;;4.20;2.70;;;;;;;25.00;37.82;100732.72;104180;1287;69218;-90
2023/08/10 00:54:08;;;;;;;4.40;2.60;;;;;;;24.99;37.72;100731.65;104191;1285;69168;-85
2023/08/10 00:56:34;;;;;;;3.80;2.20;;;;;;;24.99;37.81;100725.57;104222;1285;69391;-85
2023/08/10 00:58:59;;;;;;;5.10;2.40;;;;;;;25.00;37.68;100729.83;104355;1285;69206;-85
2023/08/10 01:01:25;;;;;;;3.00;2.60;;;;;;;24.99;37.81;100730.61;104029;1285;69136;-85
2023/08/10 01:03:50;;;;;;;4.70;2.40;;;;;;;24.99;37.71;100730.05;104253;1289;69246;-86
2023/08/10 01:06:17;;;;;;;4.20;2.60;;;;;;;24.98;37.97;100730.01;104335;1289;69332;-85
2023/08/10 01:08:45;;;;;;;3.20;2.50;;;;;;;24.98;37.84;100733.25;104319;1285;69196;-85
2023/08/10 01:11:39;;;;;;;3.50;2.40;;;;;;;24.98;37.82;100732.23;104283;1285;69135;-85
2023/08/10 01:14:11;;;;;;;4.20;2.20;;;;;;;24.97;38.15;100734.80;104429;1285;69165;-85
2023/08/10 01:16:41;;;;;;;4.90;2.50;;;;;;;24.97;37.94;100736.35;104318;1285;69267;-85
2023/08/10 01:19:19;;;;;;;3.50;2.50;;;;;;;24.97;38.00;100737.79;104050;1290;73716;-85
2023/08/10 01:22:00;;;;;;;5.20;2.50;;;;;;;24.97;38.11;100736.77;104129;1285;69333;-85
2023/08/10 01:24:42;;;;;;;3.40;2.40;;;;;;;24.96;38.32;100736.41;104113;1291;71007;-90
2023/08/10 01:27:10;;;;;;;4.10;2.20;;;;;;;24.96;38.27;100738.47;104301;1285;70317;-85
2023/08/10 01:29:35;;;;;;;3.60;2.50;;;;;;;24.96;38.17;100743.73;104025;1285;69137;-85
2023/08/10 01:32:02;;;;;;;6.00;3.00;;;;;;;24.97;38.41;100737.54;104145;1287;70500;-85
2023/08/10 01:34:27;;;;;;;3.40;2.50;;;;;;;24.96;38.20;100734.52;104551;1289;69219;-85
2023/08/10 01:36:53;;;;;;;4.20;2.30;;;;;;;24.96;38.15;100727.00;104267;1285;70458;-85
2023/08/10 01:42:02;;;;;;;4.30;2.30;;;;;;;24.94;38.29;100724.80;104354;1289;69177;-84
2023/08/10 01:44:27;;;;;;;7.00;2.70;;;;;;;24.94;38.24;100723.00;104343;1285;69131;-85
2023/08/10 01:46:53;;;;;;;3.40;2.50;;;;;;;24.94;38.20;100726.20;104365;1288;69250;-84
2023/08/10 01:49:18;;;;;;;3.50;2.60;;;;;;;24.94;38.17;100728.77;104441;1283;67398;-85
2023/08/10 01:51:45;;;;;;;5.00;2.30;;;;;;;24.94;38.15;100730.17;104178;1284;69301;-85
2023/08/10 01:54:10;;;;;;;5.70;2.50;;;;;;;24.93;38.11;100730.68;104167;1289;73358;-85
2023/08/10 01:56:36;;;;;;;2.90;2.30;;;;;;;24.93;38.13;100731.92;104382;1288;69289;-85
2023/08/10 01:59:02;;;;;;;4.20;2.50;;;;;;;24.92;38.25;100737.70;104208;1289;69205;-85
2023/08/10 02:01:27;;;;;;;5.10;2.30;;;;;;;24.92;38.26;100739.51;104236;1288;69065;-85
2023/08/10 02:03:52;;;;;;;3.30;2.20;;;;;;;24.92;38.27;100737.80;104246;1291;67296;-85
2023/08/10 02:06:26;;;;;;;3.60;2.60;;;;;;;24.92;38.18;100736.52;104120;1286;69377;-90
2023/08/10 02:08:52;;;;;;;3.40;2.40;;;;;;;24.91;38.27;100731.63;104139;1284;69050;-85
2023/08/10 02:11:17;;;;;;;5.60;2.60;;;;;;;24.91;38.11;100731.89;104439;1285;69299;-85
2023/08/10 02:13:43;;;;;;;3.60;2.50;;;;;;;24.91;38.02;100729.38;104405;1286;69266;-85
2023/08/10 02:16:08;;;;;;;4.40;2.60;;;;;;;24.90;38.29;100728.00;104251;1285;69354;-85
2023/08/10 02:18:34;;;;;;;4.20;2.50;;;;;;;24.91;38.28;100723.77;104138;1291;338654;-85
2023/08/10 02:21:00;;;;;;;4.40;2.40;;;;;;;24.90;38.33;100718.79;104015;1286;69241;-85
2023/08/10 02:23:26;;;;;;;6.60;2.50;;;;;;;24.90;38.31;100722.74;104433;1288;69287;-85
2023/08/10 02:25:54;;;;;;;2.60;2.40;;;;;;;24.90;38.23;100724.55;104449;1286;69228;-85
2023/08/10 02:28:20;;;;;;;2.40;2.00;;;;;;;24.90;38.24;100723.63;104115;1286;69125;-84
2023/08/10 02:30:45;;;;;;;4.40;2.60;;;;;;;24.89;38.34;100723.48;104407;1288;69247;-85
2023/08/10 02:33:26;;;;;;;5.10;2.40;;;;;;;24.90;38.17;100723.21;104373;1288;69578;-90
2023/08/10 02:35:52;;;;;;;3.50;2.50;;;;;;;24.88;38.26;100724.21;104351;1288;69480;-85
2023/08/10 02:38:18;;;;;;;4.60;2.50;;;;;;;24.89;38.32;100724.00;104345;1285;69587;-85
2023/08/10 02:40:44;;;;;;;2.60;2.40;;;;;;;24.89;38.41;100722.25;104297;1288;69259;-84
2023/08/10 02:43:09;;;;;;;6.20;2.50;;;;;;;24.88;38.24;100727.25;104294;1288;69289;-84
2023/08/10 02:45:35;;;;;;;3.60;2.20;;;;;;;24.88;38.51;100730.44;104254;1285;69306;-84
2023/08/10 02:48:00;;;;;;;4.20;2.20;;;;;;;24.88;38.46;100733.38;104360;1285;74972;-84
2023/08/10 02:50:25;;;;;;;4.70;2.40;;;;;;;24.88;38.52;100734.51;104399;1283;69234;-85
2023/08/10 02:52:51;;;;;;;5.80;2.50;;;;;;;24.88;38.20;100734.86;104409;1285;69262;-84
2023/08/10 02:55:17;;;;;;;6.90;2.60;;;;;;;24.88;38.50;100734.00;104655;1285;69143;-85
2023/08/10 02:57:42;;;;;;;2.80;2.50;;;;;;;24.87;38.55;100735.14;104515;1285;69362;-85
2023/08/10 03:00:15;;;;;;;4.20;2.40;;;;;;;24.87;38.59;100735.65;104331;1285;69029;-90
2023/08/10 03:02:40;;;;;;;4.30;2.60;;;;;;;24.87;38.42;100733.48;104313;1285;69346;-84
2023/08/10 03:05:06;;;;;;;5.70;2.60;;;;;;;24.87;38.48;100737.09;104461;1285;69245;-84
2023/08/10 03:07:34;;;;;;;6.00;3.00;;;;;;;24.86;38.60;100733.91;104432;1286;69258;-85
2023/08/10 03:10:00;;;;;;;6.70;3.40;;;;;;;24.87;38.56;100737.46;104415;1285;69137;-84
2023/08/10 03:12:26;;;;;;;5.00;3.30;;;;;;;24.86;38.82;100733.67;104263;1284;69343;-85
2023/08/10 03:14:51;;;;;;;4.70;3.30;;;;;;;24.83;38.84;100731.78;104313;1283;69282;-84
2023/08/10 03:17:17;;;;;;;5.30;3.10;;;;;;;24.79;39.11;100728.70;104481;1285;69243;-84
2023/08/10 03:19:43;;;;;;;7.30;3.30;;;;;;;24.75;39.12;100724.52;104414;1289;73901;-85
2023/08/10 03:22:09;;;;;;;6.30;3.30;;;;;;;24.69;39.27;100722.82;104315;1285;69104;-85
2023/08/10 03:24:37;;;;;;;7.00;3.10;;;;;;;24.60;39.20;100724.41;104485;1284;70206;-85
2023/08/10 03:27:11;;;;;;;5.10;3.20;;;;;;;24.47;39.28;100729.23;104280;1286;69432;-90
2023/08/10 03:29:37;;;;;;;6.00;3.10;;;;;;;24.27;39.34;100731.75;104393;1286;69183;-85
2023/08/10 03:32:02;;;;;;;6.00;3.10;;;;;;;24.11;39.66;100733.43;104132;1285;69227;-85
2023/08/10 03:34:28;;;;;;;5.50;3.00;;;;;;;24.04;39.98;100732.48;104543;1283;69391;-85
2023/08/10 03:36:54;;;;;;;5.80;3.20;;;;;;;24.00;39.98;100730.09;104449;1286;69887;-85
2023/08/10 03:39:19;;;;;;;5.30;3.10;;;;;;;23.96;40.16;100730.94;104389;1285;88429;-85
2023/08/10 03:41:45;;;;;;;8.40;3.20;;;;;;;23.92;40.29;100731.41;104395;1288;73682;-85
2023/08/10 03:44:11;;;;;;;6.60;3.30;;;;;;;23.88;40.45;100737.59;104224;1288;69266;-85
2023/08/10 03:46:36;;;;;;;6.90;3.30;;;;;;;23.83;40.48;100744.67;104369;1285;69557;-85
2023/08/10 03:49:02;;;;;;;9.60;3.20;;;;;;;23.79;40.48;100742.71;104260;1285;69341;-85
2023/08/10 03:51:27;;;;;;;5.40;3.40;;;;;;;23.72;40.62;100746.61;104355;1284;69289;-85
2023/08/10 03:53:55;;;;;;;6.90;3.40;;;;;;;23.67;40.83;100748.86;104255;1283;69253;-90
2023/08/10 03:56:21;;;;;;;6.70;3.20;;;;;;;23.62;40.96;100746.84;104323;1288;69084;-85
2023/08/10 03:58:47;;;;;;;10.10;3.40;;;;;;;23.59;41.21;100746.09;104260;1285;69261;-85
2023/08/10 04:01:12;;;;;;;6.40;3.40;;;;;;;23.58;41.18;100746.05;104511;1285;69014;-85
2023/08/10 04:03:38;;;;;;;9.20;3.80;;;;;;;23.56;41.32;100748.88;104442;1283;70902;-85
2023/08/10 04:06:03;;;;;;;5.40;3.10;;;;;;;23.55;41.41;100750.02;104287;1286;69244;-85
2023/08/10 04:08:29;;;;;;;8.10;3.30;;;;;;;23.55;41.49;100750.23;104191;1283;68323;-84
2023/08/10 04:10:54;;;;;;;5.50;3.10;;;;;;;23.52;41.59;100753.63;104502;1283;69251;-85
2023/08/10 04:13:20;;;;;;;9.50;3.40;;;;;;;23.51;41.59;100761.23;104712;1285;69718;-85
2023/08/10 04:15:45;;;;;;;6.40;3.70;;;;;;;23.49;41.80;100752.66;104832;1287;66883;-85
2023/08/10 04:18:11;;;;;;;8.00;3.40;;;;;;;23.48;41.72;100752.67;106543;1284;69215;-85
2023/08/10 04:20:37;;;;;;;5.50;3.10;;;;;;;23.48;41.84;100751.97;106436;1283;69248;-85
2023/08/10 04:23:03;;;;;;;3.50;2.30;;;;;;;23.49;41.86;100749.75;106218;1285;69165;-85
2023/08/10 04:25:28;;;;;;;5.50;2.50;;;;;;;23.52;41.98;100744.28;105430;1285;67186;-85
2023/08/10 04:27:54;;;;;;;7.80;2.80;;;;;;;23.58;42.20;100741.73;104853;1286;69196;-86
2023/08/10 04:30:22;;;;;;;5.20;2.70;;;;;;;23.63;41.94;100736.91;104470;1286;69141;-85
2023/08/10 04:32:56;;;;;;;5.10;2.70;;;;;;;23.68;42.05;100732.67;104560;1285;69099;-90
2023/08/10 04:35:22;;;;;;;7.60;2.80;;;;;;;23.70;42.01;100727.73;104502;1288;73565;-85
2023/08/10 04:37:49;;;;;;;9.60;2.90;;;;;;;23.73;42.04;100725.50;104372;1290;69244;-85
2023/08/10 04:40:14;;;;;;;9.20;3.20;;;;;;;23.75;42.00;100728.30;104422;1285;69289;-85
2023/08/10 04:42:40;;;;;;;6.30;3.30;;;;;;;23.78;41.91;100734.55;104566;1288;69237;-85
2023/08/10 04:45:06;;;;;;;4.50;2.80;;;;;;;23.80;41.97;100738.95;104722;1285;69220;-86
2023/08/10 04:47:32;;;;;;;6.70;4.70;;;;;;;23.82;41.93;100741.57;104524;1285;69253;-85
2023/08/10 04:49:57;;;;;;;109.00;97.50;;;;;;;23.83;41.93;100738.77;104623;1285;69224;-86
2023/08/10 04:52:23;;;;;;;136.40;122.10;;;;;;;23.85;41.95;100741.98;104910;1289;69104;-86
2023/08/10 04:54:49;;;;;;;26.70;22.80;;;;;;;23.87;41.93;100742.95;105262;1285;69273;-86
2023/08/10 04:57:14;;;;;;;9.10;6.70;;;;;;;23.87;41.91;100745.32;105290;1288;69017;-86
2023/08/10 05:02:15;;;;;;;6.10;4.10;;;;;;;23.81;41.99;100748.14;106352;1283;67043;-86
2023/08/10 05:04:40;;;;;;;8.40;4.30;;;;;;;23.77;42.04;100747.35;106813;1283;66600;-86
2023/08/10 05:07:06;;;;;;;7.30;3.60;;;;;;;23.76;42.20;100747.09;105580;1285;69287;-85
2023/08/10 05:09:32;;;;;;;7.70;3.60;;;;;;;23.72;42.36;100750.15;104751;1286;69311;-85
2023/08/10 05:11:58;;;;;;;6.00;2.80;;;;;;;23.69;42.31;100748.70;105236;1288;69192;-86
2023/08/10 05:14:28;;;;;;;6.00;3.00;;;;;;;23.68;42.44;100747.63;105469;1289;69142;-85
2023/08/10 05:17:07;;;;;;;5.50;3.70;;;;;;;23.66;42.41;100751.74;105507;1281;69142;-86
2023/08/10 05:19:33;;;;;;;4.90;2.90;;;;;;;23.66;42.56;100753.95;105165;1286;72533;-86
2023/08/10 05:21:59;;;;;;;7.10;3.00;;;;;;;23.67;42.62;100751.27;104624;1285;69240;-87
2023/08/10 05:24:24;;;;;;;9.70;3.20;;;;;;;23.67;42.53;100748.55;104766;1283;70509;-86
2023/08/10 05:26:50;;;;;;;7.60;3.30;;;;;;;23.66;42.57;100750.36;104522;1289;69241;-87
2023/08/10 05:29:15;;;;;;;7.80;3.00;;;;;;;23.64;42.88;100749.39;104560;1289;69177;-87
2023/08/10 05:31:41;;;;;;;6.00;3.00;;;;;;;23.61;43.00;100750.09;104852;1285;69239;-86
2023/08/10 05:34:06;;;;;;;5.10;3.10;;;;;;;23.59;43.00;100747.28;105153;1288;69236;-84
2023/08/10 05:36:32;;;;;;;7.80;3.40;;;;;;;23.58;43.22;100753.60;105020;1282;69253;-85
2023/08/10 05:38:58;;;;;;;7.30;3.20;;;;;;;23.58;43.29;100751.85;104850;1287;69184;-85
2023/08/10 05:41:23;;;;;;;10.80;3.60;;;;;;;23.58;43.43;100753.14;104833;1282;69285;-85
2023/08/10 05:43:50;;;;;;;9.60;3.20;;;;;;;23.57;43.47;100754.98;104661;1288;69133;-84
2023/08/10 05:46:15;;;;;;;5.70;3.10;;;;;;;23.58;43.46;100753.25;104716;1287;67993;-84
2023/08/10 05:48:41;;;;;;;11.20;3.60;;;;;;;23.61;43.56;100757.22;104709;1283;69255;-84
2023/08/10 05:51:07;;;;;;;7.50;3.00;;;;;;;23.63;43.46;100757.66;104890;1283;69278;-84
2023/08/10 05:53:41;;;;;;;7.70;3.10;;;;;;;23.62;43.47;100759.89;104734;1287;69243;-91
2023/08/10 05:56:06;;;;;;;6.50;3.20;;;;;;;23.61;43.45;100757.73;104756;1286;69176;-85
2023/08/10 05:58:32;;;;;;;9.90;3.40;;;;;;;23.65;43.49;100759.65;104920;1287;69273;-85
2023/08/10 06:00:57;;;;;;;8.60;3.00;;;;;;;23.66;43.55;100759.30;104853;1288;69263;-85
2023/08/10 06:03:23;;;;;;;8.90;2.90;;;;;;;23.68;43.49;100762.36;104689;1288;69241;-85
2023/08/10 06:05:49;;;;;;;5.90;2.90;;;;;;;23.70;43.47;100763.33;104797;1285;69317;-85
2023/08/10 06:08:14;;;;;;;10.60;5.90;;;;;;;23.72;43.34;100764.80;104496;1283;69189;-85
2023/08/10 06:10:40;;;;;;;24.80;19.30;;;;;;;23.73;43.27;100766.85;104778;1283;69240;-85
2023/08/10 06:13:06;;;;;;;15.30;11.40;;;;;;;23.72;43.26;100765.58;104659;1283;69501;-85
2023/08/10 06:15:32;;;;;;;15.70;8.40;;;;;;;23.73;43.27;100765.16;104887;1286;68266;-85
2023/08/10 06:17:58;;;;;;;10.60;5.90;;;;;;;23.70;43.27;100765.89;104804;1283;68721;-85
2023/08/10 06:20:33;;;;;;;7.70;4.40;;;;;;;23.68;43.36;100766.22;104557;1284;69467;-90
2023/08/10 06:22:59;;;;;;;9.50;3.60;;;;;;;23.68;43.33;100770.23;104725;1288;69083;-85
2023/08/10 06:25:25;;;;;;;7.80;3.20;;;;;;;23.69;43.44;100772.54;105001;1283;69199;-85
2023/08/10 06:27:51;;;;;;;8.70;3.60;;;;;;;23.70;43.37;100782.13;104948;1283;69353;-85
2023/08/10 06:30:18;;;;;;;11.20;8.80;;;;;;;23.71;43.30;100784.23;104749;1282;68250;-85
2023/08/10 06:32:44;;;;;;;7.30;3.80;;;;;;;23.74;43.35;100781.84;104909;1283;69265;-85
2023/08/10 06:35:09;;;;;;;8.20;3.30;;;;;;;23.77;43.36;100784.70;104466;1283;67465;-85
2023/08/10 06:37:36;;;;;;;19.70;16.40;;;;;;;23.78;43.12;100783.88;104912;1288;69261;-85
2023/08/10 06:40:07;;;;;;;15.20;5.50;;;;;;;23.80;43.09;100786.89;104543;1282;69326;-85
2023/08/10 06:42:33;;;;;;;8.20;4.00;;;;;;;23.79;43.12;100793.02;104901;1283;69251;-85
2023/08/10 06:44:58;;;;;;;8.30;3.40;;;;;;;23.77;43.07;100797.20;104870;1284;69262;-85
2023/08/10 06:47:26;;;;;;;7.40;2.90;;;;;;;23.76;43.15;100802.02;104611;1288;69125;-91
2023/08/10 06:49:52;;;;;;;12.20;4.10;;;;;;;23.76;43.13;100802.70;104659;1286;69383;-85
2023/08/10 06:52:17;;;;;;;7.50;3.20;;;;;;;23.78;43.13;100795.85;104941;1283;69265;-85
2023/08/10 06:54:43;;;;;;;8.70;2.90;;;;;;;23.79;43.13;100797.48;105962;1282;67215;-85
2023/08/10 06:57:08;;;;;;;8.50;2.70;;;;;;;23.81;43.33;100791.58;106293;1284;67454;-85
2023/08/10 06:59:34;;;;;;;6.70;2.70;;;;;;;23.82;43.35;100789.52;104698;1283;70407;-86
2023/08/10 07:01:59;;;;;;;4.40;2.40;;;;;;;23.84;43.35;100791.39;104774;1286;69305;-85
2023/08/10 07:04:25;;;;;;;11.40;2.80;;;;;;;23.81;43.32;100788.85;104881;1285;66957;-85
2023/08/10 07:06:51;;;;;;;6.80;2.70;;;;;;;23.82;43.27;100794.48;104918;1282;69675;-85
2023/08/10 07:09:16;;;;;;;6.90;2.80;;;;;;;23.84;43.24;100794.82;104782;1283;68996;-85
2023/08/10 07:11:42;;;;;;;7.50;3.40;;;;;;;23.88;43.22;100791.09;104768;1286;68831;-85
2023/08/10 07:16:41;;;;;;;21.00;17.20;;;;;;;23.95;43.06;100793.57;104945;1282;69109;-85
2023/08/10 07:19:07;;;;;;;21.10;16.50;;;;;;;23.98;43.12;100795.47;104549;1286;69354;-85
2023/08/10 07:21:33;;;;;;;27.20;24.10;;;;;;;24.00;43.13;100794.58;104706;1283;69185;-85
2023/08/10 07:23:58;;;;;;;16.80;14.30;;;;;;;24.04;42.86;100802.43;104680;1285;69422;-85
2023/08/10 07:26:24;;;;;;;10.40;7.50;;;;;;;24.05;42.99;100800.27;104943;1283;69186;-85
2023/08/10 07:28:50;;;;;;;14.40;7.40;;;;;;;24.08;42.83;100796.11;104740;1285;73635;-85
2023/08/10 07:31:15;;;;;;;9.60;5.10;;;;;;;24.10;42.84;100797.13;104819;1281;69265;-85
2023/08/10 07:33:42;;;;;;;7.70;4.30;;;;;;;24.13;42.72;100800.40;104869;1285;69375;-85
2023/08/10 07:36:08;;;;;;;5.80;3.60;;;;;;;24.14;42.60;100800.15;104939;1285;69198;-85
2023/08/10 07:38:33;;;;;;;8.30;4.90;;;;;;;24.16;42.55;100798.37;104800;1283;67613;-85
2023/08/10 07:40:59;;;;;;;19.00;13.70;;;;;;;24.18;42.66;100796.87;104853;1285;69244;-85
2023/08/10 07:43:24;;;;;;;14.30;8.90;;;;;;;24.20;42.43;100795.15;104824;1285;69157;-85
2023/08/10 07:45:50;;;;;;;6.20;5.50;;;;;;;24.22;42.31;100802.63;104803;1283;69149;-84
2023/08/10 07:48:15;;;;;;;6.90;4.30;;;;;;;24.25;42.43;100803.35;104757;1282;69230;-87
2023/08/10 07:50:41;;;;;;;6.30;3.00;;;;;;;24.27;42.25;100796.95;104824;1283;69250;-85
2023/08/10 07:53:14;;;;;;;6.50;3.20;;;;;;;24.29;42.08;100799.23;104716;1288;69282;-90
2023/08/10 07:55:40;;;;;;;5.00;3.30;;;;;;;24.31;41.98;100788.64;104761;1282;69173;-85
2023/08/10 07:58:05;;;;;;;7.50;2.90;;;;;;;24.33;42.11;100790.45;104870;1287;69318;-85
2023/08/10 08:00:30;;;;;;;7.10;2.90;;;;;;;24.35;41.95;100800.15;104957;1282;69185;-85
2023/08/10 08:02:56;;;;;;;5.10;2.50;;;;;;;24.37;41.81;100796.70;104747;1282;69218;-86
2023/08/10 08:05:22;;;;;;;7.80;2.60;;;;;;;24.39;41.68;100795.96;104833;1285;69247;-86
2023/08/10 08:07:47;;;;;;;6.90;2.10;;;;;;;24.41;41.78;100794.52;104751;1285;69180;-85
2023/08/10 08:10:13;;;;;;;6.10;2.50;;;;;;;24.43;41.78;100790.89;104778;1283;69151;-85
2023/08/10 08:12:38;;;;;;;4.40;2.50;;;;;;;24.45;41.75;100799.91;104737;1282;69186;-85
2023/08/10 08:15:04;;;;;;;4.80;2.20;;;;;;;24.47;41.61;100795.42;104761;1285;68983;-85
2023/08/10 08:18:08;;;;;;;7.50;2.60;;;;;;;24.48;41.52;100793.52;104708;1282;68961;-85
2023/08/10 08:20:34;;;;;;;5.20;2.60;;;;;;;24.46;41.65;100792.55;104672;1283;73536;-86
2023/08/10 08:23:08;;;;;;;6.20;2.50;;;;;;;24.47;41.49;100790.07;104753;1283;69162;-91
2023/08/10 08:25:33;;;;;;;3.80;2.70;;;;;;;24.49;41.53;100791.24;104727;1283;69048;-85
2023/08/10 08:27:59;;;;;;;6.20;2.50;;;;;;;24.50;41.53;100783.73;104746;1282;69269;-85
2023/08/10 08:30:26;;;;;;;4.80;2.40;;;;;;;24.51;41.31;100782.94;104626;1288;69345;-85
2023/08/10 08:32:51;;;;;;;4.20;2.70;;;;;;;24.52;41.14;100782.16;104815;1283;69173;-86
2023/08/10 08:35:17;;;;;;;5.30;2.70;;;;;;;24.52;41.12;100783.08;104770;1285;69330;-86
2023/08/10 08:37:44;;;;;;;4.70;2.70;;;;;;;24.54;41.15;100781.89;104714;1285;67976;-85
2023/08/10 08:40:10;;;;;;;4.20;2.20;;;;;;;24.56;40.97;100776.52;104863;1285;66683;-85
2023/08/10 08:42:36;;;;;;;4.60;2.20;;;;;;;24.58;40.89;100768.41;104705;1288;69215;-85
2023/08/10 08:45:02;;;;;;;4.60;2.40;;;;;;;24.62;40.86;100771.73;104566;1288;69250;-85
2023/08/10 08:47:27;;;;;;;3.90;2.50;;;;;;;24.64;40.48;100772.20;104445;1283;69265;-85
2023/08/10 08:50:03;;;;;;;5.60;2.70;;;;;;;24.65;40.69;100766.28;104928;1285;69253;-91
2023/08/10 08:52:28;;;;;;;5.70;2.80;;;;;;;24.68;40.42;100765.68;104609;1287;69075;-86
2023/08/10 08:54:54;;;;;;;3.60;2.60;;;;;;;24.69;40.32;100767.63;104675;1283;68168;-85
2023/08/10 08:57:19;;;;;;;4.70;2.60;;;;;;;24.69;40.21;100762.17;104764;1285;69271;-86
2023/08/10 08:59:45;;;;;;;4.50;2.60;;;;;;;24.71;39.92;100768.30;104744;1283;69285;-85
2023/08/10 09:02:10;;;;;;;2.90;2.40;;;;;;;24.70;39.67;100763.98;104914;1283;69269;-85
2023/08/10 09:04:36;;;;;;;5.80;2.60;;;;;;;24.71;39.66;100759.55;104641;1285;69311;-85
2023/08/10 09:07:01;;;;;;;2.90;2.30;;;;;;;24.72;39.60;100766.39;104777;1288;69251;-85
2023/08/10 09:09:27;;;;;;;4.00;2.50;;;;;;;24.73;39.51;100766.95;104653;1289;69301;-86
2023/08/10 09:11:52;;;;;;;5.00;2.30;;;;;;;24.73;39.55;100764.83;105083;1289;69261;-89
2023/08/10 09:14:18;;;;;;;2.50;2.20;;;;;;;24.73;39.31;100761.54;104960;1288;75478;-88
2023/08/10 09:16:58;;;;;;;3.80;2.30;;;;;;;24.73;39.06;100758.86;104888;1283;69295;-91
2023/08/10 09:19:24;;;;;;;2.60;2.40;;;;;;;24.74;39.12;100756.70;104805;1285;69078;-88
2023/08/10 09:21:50;;;;;;;5.50;2.30;;;;;;;24.75;38.94;100754.02;104576;1284;69228;-88
2023/08/10 09:24:16;;;;;;;2.30;2.10;;;;;;;24.77;38.66;100750.39;105093;1287;69117;-89
2023/08/10 09:26:41;;;;;;;4.50;2.10;;;;;;;24.79;38.55;100741.27;104870;1285;69251;-88
2023/08/10 09:29:07;;;;;;;6.70;2.10;;;;;;;24.81;38.65;100733.82;104533;1287;69324;-87
2023/08/10 09:31:32;;;;;;;3.50;2.10;;;;;;;24.83;38.42;100734.05;104577;1285;69247;-86
2023/08/10 09:33:59;;;;;;;2.20;2.00;;;;;;;24.85;38.15;100738.70;104841;1284;69198;-87
2023/08/10 09:36:29;;;;;;;2.10;1.90;;;;;;;24.86;37.96;100741.94;104620;1285;71190;-86
2023/08/10 09:38:55;;;;;;;2.70;2.20;;;;;;;24.88;38.10;100737.08;104447;1285;67726;-86
2023/08/10 09:41:21;;;;;;;4.80;2.40;;;;;;;24.90;38.00;100732.38;104882;1285;69273;-87
2023/08/10 09:43:53;;;;;;;6.70;2.20;;;;;;;24.92;37.74;100729.98;104712;1291;69298;-92
2023/08/10 09:46:19;;;;;;;3.50;2.10;;;;;;;24.94;37.98;100729.64;104421;1285;69026;-86
2023/08/10 09:48:50;;;;;;;3.00;1.90;;;;;;;24.96;37.92;100727.41;104641;1284;69186;-87
2023/08/10 09:51:16;;;;;;;5.20;1.90;;;;;;;24.97;37.62;100722.61;104930;1285;69274;-87
2023/08/10 09:53:41;;;;;;;3.80;2.30;;;;;;;24.99;37.25;100725.16;104829;1285;69280;-87
2023/08/10 09:56:07;;;;;;;3.40;2.10;;;;;;;25.02;36.94;100717.35;104992;1286;67629;-87
2023/08/10 10:01:10;;;;;;;5.30;2.60;;;;;;;25.05;36.66;100724.66;104903;1285;72937;-87
2023/08/10 10:03:36;;;;;;;4.00;2.70;;;;;;;25.07;36.58;100721.29;105070;1285;69205;-87
2023/08/10 10:06:01;;;;;;;5.20;2.70;;;;;;;25.07;36.69;100718.66;104855;1283;67828;-87
2023/08/10 10:08:28;;;;;;;4.50;2.70;;;;;;;25.09;36.61;100722.09;104659;1284;69284;-86
2023/08/10 10:11:00;;;;;;;7.80;2.60;;;;;;;25.10;36.56;100716.26;104661;1283;66707;-88
2023/08/10 10:13:26;;;;;;;12.80;11.40;;;;;;;25.11;36.49;100709.83;104438;1284;75254;-87
2023/08/10 10:15:53;;;;;;;24.60;22.10;;;;;;;25.12;36.32;100722.27;104952;1286;70268;-87
2023/08/10 10:18:19;;;;;;;26.80;24.00;;;;;;;25.12;36.42;100714.80;104893;1286;69594;-86
2023/08/10 10:20:44;;;;;;;27.10;24.40;;;;;;;25.13;36.28;100715.50;104807;1283;69381;-86
2023/08/10 10:23:15;;;;;;;25.30;22.70;;;;;;;25.14;36.70;100714.30;104849;1285;69228;-87
2023/08/10 10:26:02;;;;;;;21.10;18.90;;;;;;;25.15;36.63;100703.90;104859;1285;73724;-88
2023/08/10 10:29:12;;;;;;;23.90;21.40;;;;;;;25.16;36.63;100701.25;104567;1287;69142;-92
2023/08/10 10:31:38;;;;;;;15.90;14.20;;;;;;;25.18;36.81;100701.27;104623;1285;69260;-91
2023/08/10 10:34:04;;;;;;;13.40;12.10;;;;;;;25.19;36.55;100699.83;104341;1282;69349;-87
2023/08/10 10:36:33;;;;;;;10.60;9.50;;;;;;;25.20;36.65;100695.58;104629;1285;68952;-87
2023/08/10 10:39:08;;;;;;;7.90;7.10;;;;;;;25.20;36.52;100694.04;104748;1288;73534;-89
2023/08/10 10:41:37;;;;;;;7.20;5.90;;;;;;;25.21;36.33;100693.41;104942;1285;69058;-87
2023/08/10 10:44:03;;;;;;;8.80;7.20;;;;;;;25.20;36.22;100692.08;104736;1285;69248;-88
2023/08/10 10:46:36;;;;;;;9.00;8.10;;;;;;;25.19;36.10;100688.02;104495;1285;69156;-92
2023/08/10 10:49:07;;;;;;;8.80;5.10;;;;;;;25.19;36.00;100687.77;104342;1285;67346;-86
2023/08/10 10:51:32;;;;;;;;;;;;;;;25.19;35.72;100686.47;104911;1285;73420;-89
2023/08/10 10:53:58;;;;;;;2.70;2.10;;;;;;;25.18;35.56;100688.59;105075;1283;69395;-89
2023/08/10 10:56:26;;;;;;;2.20;2.00;;;;;;;25.20;35.42;100684.36;104699;1283;69247;-89
2023/08/10 10:58:52;;;;;;;3.20;1.90;;;;;;;25.21;35.26;100684.80;105230;1276;69027;-88
2023/08/10 11:04:06;;;;;;;3.80;1.60;;;;;;;25.24;34.83;100685.28;97094;1283;553120;-88
2023/08/10 11:06:31;;;;;;;2.80;1.50;;;;;;;25.26;34.77;100685.77;104867;1284;72387;-88
2023/08/10 11:08:57;;;;;;;2.80;2.00;;;;;;;25.27;34.46;100684.32;104839;1285;69715;-88
2023/08/10 11:11:31;;;;;;;2.00;1.70;;;;;;;25.29;34.74;100683.08;105108;1280;553501;-92
2023/08/10 11:13:57;;;;;;;2.80;1.60;;;;;;;25.29;34.60;100679.69;106638;1282;66916;-88
2023/08/10 11:16:45;;;;;;;2.60;1.60;;;;;;;25.30;34.51;100673.59;106432;1282;67639;-91
2023/08/10 11:19:13;;;;;;;5.20;2.10;;;;;;;25.31;34.26;100677.81;106312;1281;69215;-88
2023/08/10 11:21:51;;;;;;;5.30;1.80;;;;;;;25.32;34.18;100674.70;105110;1281;69157;-90
2023/08/10 11:24:17;;;;;;;3.60;2.00;;;;;;;25.33;34.30;100671.70;105614;1282;69493;-86
2023/08/10 11:26:45;;;;;;;5.10;2.00;;;;;;;25.35;34.08;100675.86;105310;1285;69176;-89
2023/08/10 11:29:12;;;;;;;4.00;1.60;;;;;;;25.36;33.98;100666.20;104869;1285;73543;-88